DEASU EDZZ-EDDW

Flight info

Callsign DEASU
Flight time N/A
Altitude
Route
Aircraft RALL

Departure

Time N/A
Airport EDZZ

Arrival

Time 2026-05-06 13:26
Airport Bremen Airport (EDDW)
Time Latitude Longitude Altitude Speed Heading
2026-05-06 13:20 53.16536 8.61351 1404 ft 133 kts 114°
2026-05-06 13:21 53.15896 8.62473 1468 ft 137 kts 140°
2026-05-06 13:21 53.14956 8.62953 1461 ft 148 kts 168°
2026-05-06 13:21 53.13935 8.63197 1482 ft 145 kts 158°
2026-05-06 13:21 53.13108 8.64037 1484 ft 135 kts 126°
2026-05-06 13:22 53.12695 8.65343 1493 ft 127 kts 97°
2026-05-06 13:22 53.12661 8.66765 1460 ft 123 kts 79°
2026-05-06 13:22 53.12764 8.68154 1451 ft 119 kts 78°
2026-05-06 13:22 53.12838 8.69530 1494 ft 116 kts 84°
2026-05-06 13:23 53.12763 8.70851 1542 ft 117 kts 101°
2026-05-06 13:23 53.12202 8.71981 1404 ft 138 kts 129°
2026-05-06 13:23 53.11469 8.73080 1260 ft 142 kts 130°
2026-05-06 13:23 53.10715 8.74099 1257 ft 141 kts 142°
2026-05-06 13:24 53.09764 8.74534 1306 ft 147 kts 171°
2026-05-06 13:24 53.08740 8.74532 1246 ft 141 kts 172°
2026-05-06 13:24 53.07770 8.74674 1011 ft 136 kts 167°
2026-05-06 13:24 53.06884 8.74809 995 ft 118 kts 170°
2026-05-06 13:25 53.06147 8.74878 883 ft 102 kts 169°
2026-05-06 13:25 53.05431 8.74971 685 ft 103 kts 171°
2026-05-06 13:25 53.04802 8.75217 500 ft 83 kts 133°
2026-05-06 13:25 53.04617 8.75942 278 ft 68 kts 77°
2026-05-06 13:26 53.04635 8.76621 152 ft 50 kts 81°
2026-05-06 13:26 53.04651 8.77202 68 ft 56 kts 80°
2026-05-06 13:26 53.04664 8.77839 16 ft 48 kts 85°
2026-05-06 13:26 53.04678 8.78305 14 ft 33 kts 89°
2026-05-06 13:27 53.04694 8.78604 15 ft 21 kts 63°
2026-05-06 13:27 53.04795 8.78663 13 ft 11 kts 357°
2026-05-06 13:27 53.04813 8.78661 13 ft 0 kts 356°
2026-05-06 13:28 53.04842 8.78631 13 ft 11 kts 303°
2026-05-06 13:28 53.04847 8.78507 13 ft 15 kts 269°
2026-05-06 13:28 53.04869 8.78353 13 ft 13 kts 324°
2026-05-06 13:29 53.04940 8.78261 13 ft 12 kts 346°
2026-05-06 13:29 53.05022 8.78206 13 ft 13 kts 320°
2026-05-06 13:29 53.05087 8.78110 13 ft 11 kts 304°
2026-05-06 13:29 53.05048 8.78091 13 ft 6 kts 154°
2026-05-06 13:30 53.05043 8.78095 13 ft 0 kts 47°
2026-05-06 13:30 53.05043 8.78096 13 ft 1 kts 40°
2026-05-06 13:30 53.05044 8.78096 13 ft 0 kts 58°
2026-05-06 13:51 53.05073 8.78072 13 ft 9 kts 350°
2026-05-06 13:51 53.05080 8.78122 13 ft 5 kts 136°